createdAt,value
2022-10-16T00:01:31.847Z,77.82
2022-10-16T00:04:00.610Z,77.72
2022-10-16T00:06:32.865Z,77.68
2022-10-16T00:09:00.459Z,77.34
2022-10-16T00:11:38.069Z,77.45
2022-10-16T00:14:12.442Z,77.48
2022-10-16T00:16:39.954Z,77.13
2022-10-16T00:19:07.939Z,77.06
2022-10-16T00:21:35.326Z,77.06
2022-10-16T00:24:06.624Z,77.14
2022-10-16T00:26:35.400Z,76.76
2022-10-16T00:29:03.578Z,76.84
2022-10-16T00:31:30.742Z,76.81
2022-10-16T00:33:58.022Z,76.92
2022-10-16T00:36:26.732Z,77.21
2022-10-16T00:38:55.824Z,77.62
2022-10-16T00:41:25.195Z,77.84
2022-10-16T00:43:55.095Z,77.95
2022-10-16T00:46:22.036Z,78.76
2022-10-16T00:49:07.000Z,78.54
2022-10-16T00:51:39.880Z,78.40
2022-10-16T00:54:18.444Z,78.12
2022-10-16T00:56:46.998Z,78.04
2022-10-16T00:59:26.358Z,78.02
2022-10-16T01:01:54.528Z,77.62
2022-10-16T01:04:22.311Z,77.73
2022-10-16T01:07:07.442Z,77.64
2022-10-16T01:10:02.936Z,77.67
2022-10-16T01:13:07.595Z,77.65
2022-10-16T01:15:48.535Z,77.70
2022-10-16T01:18:38.617Z,77.70
2022-10-16T01:21:09.537Z,77.87
2022-10-16T01:23:48.612Z,77.76
2022-10-16T01:26:24.280Z,77.80
2022-10-16T01:28:56.160Z,77.79
2022-10-16T01:31:31.645Z,77.90
2022-10-16T01:34:14.637Z,77.70
2022-10-16T01:36:52.844Z,77.99
2022-10-16T01:39:24.022Z,77.77
2022-10-16T01:41:59.993Z,77.76
2022-10-16T01:44:31.935Z,77.68
2022-10-16T01:47:22.890Z,77.82
2022-10-16T01:49:51.729Z,77.90
2022-10-16T01:52:24.034Z,77.82
2022-10-16T01:54:54.983Z,78.15
2022-10-16T01:57:26.631Z,78.58
2022-10-16T02:00:00.073Z,78.62
2022-10-16T02:02:29.580Z,78.91
2022-10-16T02:05:04.296Z,79.13
2022-10-16T02:07:31.295Z,79.17
2022-10-16T02:09:58.388Z,79.19
2022-10-16T02:12:29.236Z,79.35
2022-10-16T02:14:56.993Z,79.29
2022-10-16T02:17:24.696Z,79.54
2022-10-16T02:19:55.874Z,79.70
2022-10-16T02:22:34.801Z,79.83
2022-10-16T02:25:14.364Z,79.91
2022-10-16T02:27:46.387Z,80.32
2022-10-16T02:30:42.026Z,80.34
2022-10-16T02:33:14.629Z,80.43
2022-10-16T02:35:42.802Z,80.67
2022-10-16T02:40:43.721Z,80.89
2022-10-16T02:43:11.668Z,80.89
2022-10-16T02:45:39.236Z,81.78
2022-10-16T02:48:06.618Z,82.30
2022-10-16T02:50:34.240Z,82.41
2022-10-16T02:53:01.819Z,82.65
2022-10-16T02:55:29.185Z,83.27
2022-10-16T02:57:56.481Z,83.79
2022-10-16T03:00:23.563Z,84.12
2022-10-16T03:02:51.406Z,84.09
2022-10-16T03:05:18.628Z,84.32
2022-10-16T03:07:45.542Z,84.69
2022-10-16T03:10:12.776Z,85.46
2022-10-16T03:12:39.798Z,85.23
2022-10-16T03:15:08.340Z,85.53
2022-10-16T03:17:35.758Z,85.50
2022-10-16T03:20:03.737Z,85.55
2022-10-16T03:22:30.776Z,85.75
2022-10-16T03:24:57.965Z,85.64
2022-10-16T03:27:25.260Z,85.77
2022-10-16T03:29:52.519Z,85.37
2022-10-16T03:32:21.078Z,85.08
2022-10-16T03:34:48.286Z,84.95
2022-10-16T03:37:15.164Z,84.79
2022-10-16T03:39:42.411Z,84.51
2022-10-16T03:42:09.385Z,84.10
2022-10-16T03:44:36.552Z,83.72
2022-10-16T03:47:03.477Z,83.45
2022-10-16T03:49:30.866Z,83.26
2022-10-16T03:51:57.911Z,83.16
2022-10-16T03:54:25.179Z,82.97
2022-10-16T03:56:52.025Z,83.00
2022-10-16T03:59:19.177Z,82.72
2022-10-16T04:01:46.148Z,82.53
2022-10-16T04:04:13.519Z,82.28
2022-10-16T04:06:41.946Z,82.23
2022-10-16T04:09:09.274Z,82.22
2022-10-16T04:11:36.456Z,82.33
2022-10-16T04:14:04.035Z,82.28
2022-10-16T04:16:30.972Z,82.42
2022-10-16T04:18:58.280Z,82.53
2022-10-16T04:21:25.516Z,82.56
2022-10-16T04:23:52.954Z,82.67
2022-10-16T04:26:19.860Z,82.77
2022-10-16T04:28:47.195Z,82.88
2022-10-16T04:31:14.154Z,82.97
2022-10-16T04:33:44.367Z,82.84
2022-10-16T04:36:11.830Z,82.96
2022-10-16T04:38:40.501Z,82.88
2022-10-16T04:41:09.079Z,82.85
2022-10-16T04:43:36.625Z,82.80
2022-10-16T04:46:05.720Z,82.67
2022-10-16T04:48:33.602Z,82.51
2022-10-16T04:51:00.941Z,82.30
2022-10-16T04:53:28.223Z,82.31
2022-10-16T04:55:55.581Z,82.19
2022-10-16T04:58:24.645Z,82.23
2022-10-16T05:00:51.824Z,82.00
2022-10-16T05:03:18.983Z,81.97
2022-10-16T05:05:46.677Z,81.92
2022-10-16T05:08:15.127Z,81.88
2022-10-16T05:10:43.396Z,82.00
2022-10-16T05:13:11.000Z,82.08
2022-10-16T05:15:37.957Z,82.02
2022-10-16T05:18:05.099Z,82.23
2022-10-16T05:20:32.014Z,82.19
2022-10-16T05:22:59.254Z,82.38
2022-10-16T05:25:26.521Z,82.22
2022-10-16T05:27:53.694Z,81.91
2022-10-16T05:30:21.273Z,81.95
2022-10-16T05:32:51.928Z,81.79
2022-10-16T05:35:19.941Z,82.00
2022-10-16T05:37:47.891Z,81.83
2022-10-16T05:40:15.481Z,81.86
2022-10-16T05:42:42.526Z,81.89
2022-10-16T05:45:11.812Z,81.99
2022-10-16T05:47:39.110Z,82.08
2022-10-16T05:50:06.953Z,82.23
2022-10-16T05:52:34.196Z,82.47
2022-10-16T05:55:01.141Z,82.23
2022-10-16T05:57:28.974Z,82.42
2022-10-16T05:59:56.058Z,82.47
2022-10-16T06:02:23.247Z,82.50
2022-10-16T06:04:50.125Z,82.46
2022-10-16T06:07:17.289Z,82.63
2022-10-16T06:09:44.477Z,82.53
2022-10-16T06:12:11.589Z,82.41
2022-10-16T06:14:38.694Z,82.30
2022-10-16T06:17:05.804Z,82.42
2022-10-16T06:19:32.757Z,82.33
2022-10-16T06:22:00.289Z,82.27
2022-10-16T06:24:27.492Z,82.17
2022-10-16T06:26:54.545Z,81.89
2022-10-16T06:29:21.492Z,82.00
2022-10-16T06:31:48.925Z,81.80
2022-10-16T06:34:15.877Z,81.56
2022-10-16T06:36:44.540Z,81.48
2022-10-16T06:39:11.496Z,81.04
2022-10-16T06:41:39.241Z,81.03
2022-10-16T06:44:16.240Z,80.70
2022-10-16T06:46:43.594Z,80.86
2022-10-16T06:49:10.676Z,80.48
2022-10-16T06:51:43.223Z,80.15
2022-10-16T06:54:10.935Z,80.06
2022-10-16T06:56:38.695Z,79.93
2022-10-16T06:59:05.801Z,79.79
2022-10-16T07:01:50.900Z,79.22
2022-10-16T07:04:18.122Z,79.08
2022-10-16T07:06:45.272Z,78.81
2022-10-16T07:09:12.976Z,78.40
2022-10-16T07:11:41.663Z,77.60
2022-10-16T07:14:18.582Z,77.30
2022-10-16T07:16:46.571Z,77.25
2022-10-16T07:19:16.034Z,76.98
2022-10-16T07:21:43.334Z,77.10
2022-10-16T07:24:16.376Z,76.77
2022-10-16T07:26:45.934Z,76.68
2022-10-16T07:29:19.398Z,77.05
2022-10-16T07:31:46.940Z,77.21
2022-10-16T07:34:16.141Z,77.10
2022-10-16T07:36:43.544Z,76.69
2022-10-16T07:39:11.019Z,76.88
2022-10-16T07:41:38.196Z,76.80
2022-10-16T07:44:06.356Z,77.05
2022-10-16T07:46:35.084Z,77.09
2022-10-16T07:49:02.292Z,77.02
2022-10-16T07:51:29.856Z,76.84
2022-10-16T07:53:57.124Z,76.67
2022-10-16T07:56:24.574Z,75.96
2022-10-16T07:58:52.828Z,75.48
2022-10-16T08:01:20.403Z,74.61
2022-10-16T08:03:52.502Z,73.84
2022-10-16T08:06:25.194Z,73.57
2022-10-16T08:08:56.872Z,73.27
2022-10-16T08:11:24.529Z,73.27
2022-10-16T08:13:52.577Z,73.00
2022-10-16T08:16:20.248Z,72.86
2022-10-16T08:18:47.542Z,72.39
2022-10-16T08:21:21.370Z,71.47
2022-10-16T08:23:54.492Z,71.71
2022-10-16T08:26:26.109Z,70.44
2022-10-16T08:28:53.559Z,70.92
2022-10-16T08:31:21.112Z,71.15
2022-10-16T08:33:49.049Z,71.03
2022-10-16T08:36:17.306Z,71.21
2022-10-16T08:38:44.603Z,71.25
2022-10-16T08:41:14.482Z,71.12
2022-10-16T08:44:07.820Z,71.12
2022-10-16T08:46:40.610Z,71.31
2022-10-16T08:49:14.080Z,70.99
2022-10-16T08:51:44.215Z,71.24
2022-10-16T08:54:37.984Z,71.23
2022-10-16T08:57:18.469Z,71.09
2022-10-16T08:59:47.290Z,70.81
2022-10-16T09:02:31.004Z,70.72
2022-10-16T09:05:20.150Z,70.65
2022-10-16T09:08:25.524Z,70.26
2022-10-16T09:10:55.560Z,70.42
2022-10-16T09:13:31.046Z,70.54
2022-10-16T09:16:50.837Z,70.59
2022-10-16T09:19:43.014Z,70.64
2022-10-16T09:22:17.660Z,70.30
2022-10-16T09:24:44.960Z,69.52
2022-10-16T09:27:15.950Z,69.71
2022-10-16T09:29:43.003Z,69.22
2022-10-16T09:32:16.370Z,69.30
2022-10-16T09:34:57.370Z,69.03
2022-10-16T09:37:27.270Z,68.57
2022-10-16T09:39:55.825Z,68.31
2022-10-16T09:42:29.402Z,68.04
2022-10-16T09:44:58.547Z,67.10
2022-10-16T09:47:29.026Z,66.25
2022-10-16T09:50:03.226Z,66.71
2022-10-16T09:52:31.320Z,66.79
2022-10-16T09:55:13.480Z,65.93
2022-10-16T09:57:54.108Z,66.47
2022-10-16T10:00:23.112Z,66.43
2022-10-16T10:02:51.068Z,66.80
2022-10-16T10:05:22.916Z,66.92
2022-10-16T10:08:00.237Z,66.67
2022-10-16T10:10:33.030Z,66.43
2022-10-16T10:13:00.881Z,65.84
2022-10-16T10:15:35.115Z,65.96
2022-10-16T10:18:04.341Z,65.97
2022-10-16T10:20:36.506Z,65.58
2022-10-16T10:23:22.982Z,64.79
2022-10-16T10:26:06.953Z,64.24
2022-10-16T10:28:49.430Z,64.43
2022-10-16T10:31:32.988Z,63.90
2022-10-16T10:34:18.573Z,63.45
2022-10-16T10:36:53.903Z,63.58
2022-10-16T10:39:27.721Z,63.37
2022-10-16T10:42:03.486Z,63.01
2022-10-16T10:44:57.272Z,63.27
2022-10-16T10:48:01.364Z,62.68
2022-10-16T10:50:50.613Z,62.32
2022-10-16T10:53:39.418Z,62.65
2022-10-16T10:56:32.034Z,62.92
2022-10-16T10:59:01.854Z,62.85
2022-10-16T11:01:54.115Z,62.57
2022-10-16T11:04:21.030Z,62.66
2022-10-16T11:06:53.537Z,62.76
2022-10-16T11:09:37.698Z,62.69
2022-10-16T11:12:08.172Z,62.83
2022-10-16T11:14:35.187Z,62.48
2022-10-16T11:17:20.371Z,62.57
2022-10-16T11:20:20.665Z,62.48
2022-10-16T11:22:57.565Z,62.85
2022-10-16T11:25:33.440Z,62.50
2022-10-16T11:28:12.750Z,62.84
2022-10-16T11:30:42.616Z,62.99
2022-10-16T11:33:19.499Z,62.91
2022-10-16T11:36:15.407Z,62.83
2022-10-16T11:39:07.281Z,62.99
2022-10-16T11:41:37.194Z,63.00
2022-10-16T11:44:39.698Z,62.43
2022-10-16T11:47:59.216Z,62.43
2022-10-16T11:50:35.620Z,62.29
2022-10-16T11:53:36.508Z,62.14
2022-10-16T11:56:05.568Z,61.78
2022-10-16T11:58:46.014Z,61.52
2022-10-16T12:01:21.184Z,61.34
2022-10-16T12:04:28.624Z,61.72
2022-10-16T12:07:07.316Z,61.54
2022-10-16T12:09:39.494Z,61.69
2022-10-16T12:12:29.168Z,61.69
2022-10-16T12:15:26.037Z,62.12
2022-10-16T12:18:02.208Z,61.27
2022-10-16T12:20:36.172Z,61.71
2022-10-16T12:23:06.415Z,61.84
2022-10-16T12:25:40.946Z,61.89
2022-10-16T12:28:21.437Z,62.03
2022-10-16T12:31:10.976Z,61.75
2022-10-16T12:33:42.829Z,62.04
2022-10-16T12:36:38.014Z,62.46
2022-10-16T12:39:05.558Z,62.17
2022-10-16T12:41:40.828Z,62.53
2022-10-16T12:44:27.382Z,62.62
2022-10-16T12:46:54.362Z,62.29
2022-10-16T12:49:38.004Z,62.54
2022-10-16T12:52:05.747Z,62.92
2022-10-16T12:54:38.612Z,63.05
2022-10-16T12:57:28.617Z,63.13
2022-10-16T13:00:21.175Z,63.22
2022-10-16T13:02:58.287Z,63.17
2022-10-16T13:05:40.793Z,63.18
2022-10-16T13:08:10.630Z,63.48
2022-10-16T13:11:19.122Z,63.78
2022-10-16T13:13:59.727Z,64.07
2022-10-16T13:17:24.036Z,64.35
2022-10-16T13:20:13.693Z,64.43
2022-10-16T13:22:53.864Z,64.63
2022-10-16T13:25:31.061Z,64.89
2022-10-16T13:28:02.402Z,65.03
2022-10-16T13:30:31.936Z,65.40
2022-10-16T13:33:05.264Z,65.53
2022-10-16T13:35:34.596Z,65.62
2022-10-16T13:38:17.088Z,66.04
2022-10-16T13:40:55.958Z,66.23
2022-10-16T13:43:28.837Z,66.26
2022-10-16T13:46:08.141Z,66.62
2022-10-16T13:48:35.747Z,66.73
2022-10-16T13:51:19.639Z,66.80
2022-10-16T13:53:47.547Z,67.11
2022-10-16T13:56:20.748Z,67.22
2022-10-16T13:58:58.673Z,67.35
2022-10-16T14:01:35.473Z,67.50
2022-10-16T14:04:08.888Z,67.39
2022-10-16T14:06:40.913Z,67.24
2022-10-16T14:09:15.219Z,67.44
2022-10-16T14:12:11.425Z,67.50
2022-10-16T14:14:43.053Z,67.57
2022-10-16T14:17:19.656Z,67.70
2022-10-16T14:19:56.946Z,67.54
2022-10-16T14:22:41.478Z,67.61
2022-10-16T14:25:21.181Z,67.49
2022-10-16T14:28:05.952Z,67.84
2022-10-16T14:30:36.086Z,67.92
2022-10-16T14:33:05.729Z,68.23
2022-10-16T14:35:39.549Z,68.34
2022-10-16T14:38:18.316Z,68.56
2022-10-16T14:40:49.773Z,68.60
2022-10-16T14:43:23.348Z,68.55
2022-10-16T14:45:57.016Z,68.63
2022-10-16T14:48:25.321Z,68.74
2022-10-16T14:50:52.633Z,68.76
2022-10-16T14:53:19.805Z,68.91
2022-10-16T14:55:47.214Z,68.97
2022-10-16T14:58:22.816Z,68.80
2022-10-16T15:00:50.526Z,68.91
2022-10-16T15:03:17.750Z,68.94
2022-10-16T15:05:45.247Z,69.08
2022-10-16T15:08:13.379Z,69.08
2022-10-16T15:10:45.089Z,69.30
2022-10-16T15:13:15.521Z,69.19
2022-10-16T15:15:47.355Z,69.39
2022-10-16T15:18:16.211Z,69.74
2022-10-16T15:20:44.424Z,69.94
2022-10-16T15:23:16.828Z,69.96
2022-10-16T15:25:45.366Z,70.39
2022-10-16T15:28:14.280Z,70.43
2022-10-16T15:30:42.831Z,70.81
2022-10-16T15:33:19.350Z,70.93
2022-10-16T15:35:50.815Z,71.14
2022-10-16T15:38:19.426Z,71.25
2022-10-16T15:40:47.388Z,71.60
2022-10-16T15:43:14.421Z,71.94
2022-10-16T15:45:42.127Z,71.68
2022-10-16T15:48:14.674Z,71.64
2022-10-16T15:50:41.945Z,71.71
2022-10-16T15:53:09.191Z,72.05
2022-10-16T15:55:38.885Z,72.04
2022-10-16T15:58:06.600Z,72.13
2022-10-16T16:00:34.265Z,72.39
2022-10-16T16:03:01.414Z,72.51
2022-10-16T16:05:28.730Z,72.81
2022-10-16T16:07:55.710Z,72.90
2022-10-16T16:10:22.908Z,73.02
2022-10-16T16:12:53.092Z,73.14
2022-10-16T16:15:22.345Z,73.24
2022-10-16T16:17:50.328Z,73.29
2022-10-16T16:20:17.850Z,73.64
2022-10-16T16:22:44.932Z,73.75
2022-10-16T16:25:12.381Z,73.91
2022-10-16T16:27:39.654Z,74.00
2022-10-16T16:30:08.366Z,74.14
2022-10-16T16:32:36.219Z,74.28
2022-10-16T16:35:04.924Z,74.22
2022-10-16T16:37:32.419Z,74.56
2022-10-16T16:39:59.712Z,74.67
2022-10-16T16:42:28.274Z,74.87
2022-10-16T16:44:55.693Z,75.08
2022-10-16T16:47:23.023Z,75.46
2022-10-16T16:49:50.474Z,75.57
2022-10-16T16:52:17.720Z,76.06
2022-10-16T16:54:52.217Z,76.19
2022-10-16T16:57:21.116Z,76.66
2022-10-16T16:59:52.028Z,76.84
2022-10-16T17:02:19.089Z,77.00
2022-10-16T17:04:46.408Z,77.51
2022-10-16T17:07:13.352Z,77.51
2022-10-16T17:09:40.745Z,77.85
2022-10-16T17:12:07.916Z,77.88
2022-10-16T17:14:35.005Z,78.29
2022-10-16T17:17:02.019Z,78.44
2022-10-16T17:19:29.152Z,78.44
2022-10-16T17:21:56.159Z,78.89
2022-10-16T17:24:23.490Z,78.84
2022-10-16T17:26:50.579Z,79.37
2022-10-16T17:29:18.875Z,79.33
2022-10-16T17:31:46.500Z,79.46
2022-10-16T17:34:14.193Z,79.65
2022-10-16T17:36:44.448Z,79.99
2022-10-16T17:39:14.172Z,80.20
2022-10-16T17:41:41.135Z,80.65
2022-10-16T17:44:08.655Z,81.02
2022-10-16T17:46:40.101Z,80.99
2022-10-16T17:49:09.909Z,81.26
2022-10-16T17:51:37.130Z,81.31
2022-10-16T17:54:04.704Z,81.35
2022-10-16T17:56:32.156Z,81.46
2022-10-16T17:59:01.726Z,81.70
2022-10-16T18:01:35.405Z,81.73
2022-10-16T18:04:07.371Z,82.14
2022-10-16T18:06:34.877Z,82.48
2022-10-16T18:09:04.306Z,82.39
2022-10-16T18:11:32.260Z,82.57
2022-10-16T18:13:59.817Z,82.79
2022-10-16T18:16:29.221Z,83.00
2022-10-16T18:18:57.365Z,83.02
2022-10-16T18:21:27.500Z,83.23
2022-10-16T18:23:55.470Z,83.43
2022-10-16T18:26:23.482Z,83.65
2022-10-16T18:28:55.966Z,83.77
2022-10-16T18:31:23.994Z,83.77
2022-10-16T18:33:51.605Z,83.94
2022-10-16T18:36:21.847Z,84.32
2022-10-16T18:38:50.507Z,84.29
2022-10-16T18:41:17.973Z,84.32
2022-10-16T18:43:45.235Z,84.42
2022-10-16T18:46:15.632Z,84.58
2022-10-16T18:48:44.203Z,84.69
2022-10-16T18:51:16.981Z,84.83
2022-10-16T18:53:46.016Z,84.96
2022-10-16T18:56:16.895Z,85.22
2022-10-16T18:58:48.356Z,85.55
2022-10-16T19:01:20.990Z,85.59
2022-10-16T19:03:53.508Z,86.01
2022-10-16T19:06:20.711Z,86.01
2022-10-16T19:08:48.150Z,86.20
2022-10-16T19:11:17.825Z,86.33
2022-10-16T19:13:46.551Z,86.59
2022-10-16T19:16:22.974Z,86.72
2022-10-16T19:18:52.054Z,87.17
2022-10-16T19:21:19.227Z,87.51
2022-10-16T19:23:47.156Z,87.70
2022-10-16T19:26:17.016Z,87.63
2022-10-16T19:28:44.936Z,87.90
2022-10-16T19:31:18.569Z,88.06
2022-10-16T19:33:46.318Z,88.39
2022-10-16T19:36:19.079Z,88.64
2022-10-16T19:38:47.131Z,88.63
2022-10-16T19:41:18.516Z,88.94
2022-10-16T19:43:45.879Z,89.21
2022-10-16T19:46:19.363Z,89.50
2022-10-16T19:48:48.456Z,89.57
2022-10-16T19:51:18.397Z,89.69
2022-10-16T19:53:47.189Z,89.70
2022-10-16T19:56:17.177Z,89.96
2022-10-16T19:58:45.843Z,90.09
2022-10-16T20:01:14.625Z,90.42
2022-10-16T20:03:46.447Z,90.39
2022-10-16T20:06:13.540Z,90.58
2022-10-16T20:08:42.510Z,90.61
2022-10-16T20:11:15.103Z,90.64
2022-10-16T20:13:42.605Z,90.73
2022-10-16T20:16:10.775Z,90.99
2022-10-16T20:18:38.442Z,90.99
2022-10-16T20:21:10.634Z,91.24
2022-10-16T20:23:37.977Z,91.32
2022-10-16T20:26:05.145Z,91.31
2022-10-16T20:28:32.442Z,91.45
2022-10-16T20:30:59.477Z,91.58
2022-10-16T20:33:26.631Z,91.62
2022-10-16T20:35:53.677Z,91.94
2022-10-16T20:38:20.736Z,91.98
2022-10-16T20:40:48.647Z,91.90
2022-10-16T20:43:17.975Z,91.91
2022-10-16T20:45:45.966Z,92.01
2022-10-16T20:48:14.035Z,92.31
2022-10-16T20:50:42.109Z,92.15
2022-10-16T20:53:09.499Z,92.12
2022-10-16T20:55:37.953Z,91.99
2022-10-16T20:58:05.830Z,92.06
2022-10-16T21:00:33.017Z,92.03
2022-10-16T21:03:00.202Z,92.21
2022-10-16T21:05:29.964Z,92.01
2022-10-16T21:08:00.728Z,92.05
2022-10-16T21:10:29.561Z,92.25
2022-10-16T21:12:56.676Z,92.13
2022-10-16T21:15:23.856Z,92.33
2022-10-16T21:17:51.028Z,92.42
2022-10-16T21:20:18.233Z,92.81
2022-10-16T21:22:45.391Z,92.77
2022-10-16T21:25:12.312Z,92.75
2022-10-16T21:27:40.669Z,92.85
2022-10-16T21:30:09.499Z,92.85
2022-10-16T21:32:38.043Z,93.28
2022-10-16T21:35:06.306Z,93.17
2022-10-16T21:37:33.865Z,93.10
2022-10-16T21:40:01.106Z,93.13
2022-10-16T21:42:28.760Z,93.46
2022-10-16T21:44:55.810Z,93.55
2022-10-16T21:47:23.183Z,93.62
2022-10-16T21:49:50.146Z,93.59
2022-10-16T21:52:17.363Z,93.90
2022-10-16T21:54:44.313Z,94.13
2022-10-16T21:57:11.444Z,94.17
2022-10-16T21:59:38.540Z,94.46
2022-10-16T22:02:06.381Z,94.33
2022-10-16T22:04:33.714Z,94.38
2022-10-16T22:07:00.827Z,94.33
2022-10-16T22:09:27.851Z,94.55
2022-10-16T22:11:55.049Z,94.49
2022-10-16T22:14:22.173Z,94.31
2022-10-16T22:16:50.252Z,94.22
2022-10-16T22:19:19.686Z,94.11
2022-10-16T22:21:48.075Z,94.41
2022-10-16T22:24:16.530Z,94.44
2022-10-16T22:26:45.007Z,94.37
2022-10-16T22:29:14.427Z,94.53
2022-10-16T22:31:42.580Z,94.59
2022-10-16T22:34:13.338Z,94.53
2022-10-16T22:36:40.935Z,94.53
2022-10-16T22:39:07.822Z,94.68
2022-10-16T22:41:34.976Z,94.76
2022-10-16T22:44:01.942Z,94.59
2022-10-16T22:46:30.840Z,94.78
2022-10-16T22:48:58.709Z,94.82
2022-10-16T22:51:27.155Z,94.88
2022-10-16T22:53:54.387Z,95.03
2022-10-16T22:56:22.346Z,95.21
2022-10-16T22:58:50.212Z,95.19
2022-10-16T23:01:20.249Z,95.27
2022-10-16T23:03:47.310Z,95.37
2022-10-16T23:06:14.593Z,95.37
2022-10-16T23:08:41.618Z,95.49
2022-10-16T23:11:12.303Z,95.53
2022-10-16T23:13:45.218Z,95.67
2022-10-16T23:16:15.484Z,95.67
2022-10-16T23:18:43.775Z,95.63
2022-10-16T23:21:13.694Z,95.82
2022-10-16T23:23:41.725Z,95.80
2022-10-16T23:26:14.786Z,95.92
2022-10-16T23:28:42.438Z,96.06
2022-10-16T23:31:11.203Z,96.17
2022-10-16T23:33:39.511Z,96.23
2022-10-16T23:36:09.630Z,96.21
2022-10-16T23:38:36.745Z,96.20
2022-10-16T23:41:04.784Z,96.40
2022-10-16T23:43:31.956Z,96.51
2022-10-16T23:45:59.231Z,96.65
2022-10-16T23:48:26.508Z,96.72
2022-10-16T23:50:53.668Z,96.78
2022-10-16T23:53:20.887Z,96.99
2022-10-16T23:55:48.145Z,97.04
2022-10-16T23:58:15.821Z,97.32
